Time;durP1;ratioP1;P1;durP2;ratioP2;P2;SDS_P1;SDS_P2;PMS_P1;PMS_P2;Temp;Humidity;BMP_temperature;BMP_pressure;BME280_temperature;BME280_humidity;BME280_pressure;Samples;Min_cycle;Max_cycle;Signal;HPM_P1;HPM_P2
2023/05/27 00:01:21;;;;;;;14.17;11.70;;;22.50;99.90;;;;;;5115307;28;20668;-82
2023/05/27 00:03:46;;;;;;;11.27;10.17;;;22.50;99.90;;;;;;5115319;28;20179;-82
2023/05/27 00:06:12;;;;;;;12.77;11.27;;;22.50;99.90;;;;;;5115063;28;20207;-82
2023/05/27 00:08:38;;;;;;;13.40;11.97;;;22.50;99.90;;;;;;5097030;28;20659;-82
2023/05/27 00:11:04;;;;;;;12.63;11.30;;;22.40;99.90;;;;;;5115049;28;20191;-83
2023/05/27 00:13:30;;;;;;;12.63;11.30;;;22.40;99.90;;;;;;5115188;28;20228;-82
2023/05/27 00:15:56;;;;;;;15.17;11.80;;;22.40;99.90;;;;;;5096493;28;20444;-82
2023/05/27 00:18:21;;;;;;;13.37;12.03;;;22.40;99.90;;;;;;5096774;28;20278;-82
2023/05/27 00:20:48;;;;;;;14.03;12.63;;;22.30;99.90;;;;;;5114967;28;20198;-81
2023/05/27 00:23:14;;;;;;;12.40;11.10;;;22.30;99.90;;;;;;5096733;28;20179;-82
2023/05/27 00:25:40;;;;;;;13.67;12.23;;;22.30;99.90;;;;;;5114843;28;20523;-82
2023/05/27 00:28:06;;;;;;;15.93;12.33;;;22.20;99.90;;;;;;5096534;28;21178;-82
2023/05/27 00:30:31;;;;;;;13.10;11.80;;;22.20;99.90;;;;;;5114805;28;20963;-82
2023/05/27 00:32:57;;;;;;;13.10;10.87;;;22.20;99.90;;;;;;5114868;28;20587;-82
2023/05/27 00:35:23;;;;;;;16.77;12.23;;;22.20;99.90;;;;;;5096470;28;20206;-82
2023/05/27 00:37:49;;;;;;;13.90;12.40;;;22.20;99.90;;;;;;5096717;28;20674;-82
2023/05/27 00:40:19;;;;;;;16.70;12.13;;;22.20;99.90;;;;;;5114671;28;20623;-82
2023/05/27 00:42:45;;;;;;;14.50;11.70;;;22.10;99.90;;;;;;5096694;28;20171;-82
2023/05/27 00:45:11;;;;;;;16.40;12.10;;;22.10;99.90;;;;;;5114558;28;20438;-82
2023/05/27 00:47:37;;;;;;;14.30;12.23;;;22.10;99.90;;;;;;5096528;28;20616;-82
2023/05/27 00:50:03;;;;;;;12.90;11.60;;;22.20;99.90;;;;;;5113981;28;20439;-82
2023/05/27 00:52:29;;;;;;;12.67;10.87;;;22.10;99.90;;;;;;5096169;28;20178;-82
2023/05/27 00:54:56;;;;;;;13.50;12.10;;;22.20;99.90;;;;;;5096086;28;20912;-82
2023/05/27 00:57:22;;;;;;;12.80;11.50;;;22.10;99.90;;;;;;5096400;28;20412;-82
2023/05/27 00:59:48;;;;;;;12.17;10.90;;;22.10;99.90;;;;;;5114347;28;20466;-82
2023/05/27 01:02:14;;;;;;;12.80;11.53;;;22.10;99.90;;;;;;5096337;28;20210;-82
2023/05/27 01:04:42;;;;;;;15.37;10.90;;;22.20;99.90;;;;;;5114310;28;20586;-82
2023/05/27 01:07:22;;;;;;;12.73;11.27;;;22.10;99.90;;;;;;5114587;28;20462;-82
2023/05/27 01:09:55;;;;;;;12.60;11.30;;;22.20;99.90;;;;;;5095896;28;20425;-82
2023/05/27 01:12:54;;;;;;;13.87;11.17;;;22.20;99.90;;;;;;5096124;28;20435;-82
2023/05/27 01:15:21;;;;;;;14.13;12.63;;;22.10;99.90;;;;;;5095973;28;20458;-83
2023/05/27 01:17:48;;;;;;;14.40;12.33;;;22.20;99.90;;;;;;5114233;28;20472;-82
2023/05/27 01:20:14;;;;;;;13.53;12.03;;;22.20;99.90;;;;;;5095877;28;20439;-83
2023/05/27 01:22:42;;;;;;;12.83;11.50;;;22.10;99.90;;;;;;5114623;28;20760;-82
2023/05/27 01:25:09;;;;;;;13.57;12.17;;;22.10;99.90;;;;;;5095688;28;20203;-82
2023/05/27 01:27:34;;;;;;;14.30;12.80;;;22.20;99.90;;;;;;5095670;28;20947;-82
2023/05/27 01:30:01;;;;;;;15.43;13.93;;;22.10;99.90;;;;;;5113951;28;20457;-82
2023/05/27 01:32:51;;;;;;;14.23;12.50;;;22.10;99.90;;;;;;5114562;28;20180;-82
2023/05/27 01:35:24;;;;;;;17.20;14.40;;;22.10;99.90;;;;;;5114006;28;20440;-82
2023/05/27 01:37:52;;;;;;;14.37;12.80;;;22.10;99.90;;;;;;5114517;28;20412;-82
2023/05/27 01:40:19;;;;;;;14.20;12.50;;;22.00;99.90;;;;;;5113925;28;20428;-82
2023/05/27 01:42:46;;;;;;;17.13;13.50;;;22.00;99.90;;;;;;5113991;28;20418;-82
2023/05/27 01:45:12;;;;;;;15.83;13.63;;;22.00;99.90;;;;;;5095650;28;20515;-81
2023/05/27 01:47:38;;;;;;;14.63;12.67;;;21.90;99.90;;;;;;5114283;28;20475;-82
2023/05/27 01:50:05;;;;;;;14.97;13.40;;;21.90;99.90;;;;;;5113845;28;20835;-82
2023/05/27 01:52:30;;;;;;;15.97;13.40;;;21.90;99.90;;;;;;5095766;28;20481;-82
2023/05/27 01:54:56;;;;;;;16.80;13.83;;;21.80;99.90;;;;;;5113815;28;20824;-82
2023/05/27 01:57:23;;;;;;;17.57;13.70;;;21.80;99.90;;;;;;5114175;28;20180;-82
2023/05/27 01:59:49;;;;;;;15.70;14.00;;;21.70;99.90;;;;;;5095459;28;20249;-82
2023/05/27 02:02:15;;;;;;;16.07;13.83;;;21.70;99.90;;;;;;5098730;28;20416;-82
2023/05/27 02:04:40;;;;;;;17.73;14.50;;;21.60;99.90;;;;;;5117721;28;20267;-82
2023/05/27 02:07:06;;;;;;;15.80;14.20;;;21.60;99.90;;;;;;5099443;28;20620;-82
2023/05/27 02:09:32;;;;;;;14.50;12.30;;;21.50;99.90;;;;;;5117642;28;20708;-82
2023/05/27 02:11:57;;;;;;;15.93;14.17;;;21.50;99.90;;;;;;5117856;28;20424;-82
2023/05/27 02:14:23;;;;;;;17.27;15.40;;;21.50;99.90;;;;;;5099234;28;20175;-82
2023/05/27 02:16:49;;;;;;;16.80;14.97;;;21.40;99.90;;;;;;5117162;28;20288;-82
2023/05/27 02:19:16;;;;;;;16.20;14.50;;;21.40;99.90;;;;;;5099200;28;20502;-82
2023/05/27 02:21:41;;;;;;;16.93;15.13;;;21.30;99.90;;;;;;5117594;28;20609;-82
2023/05/27 02:24:07;;;;;;;18.00;15.10;;;21.30;99.90;;;;;;5099053;28;20441;-82
2023/05/27 02:26:34;;;;;;;16.80;14.80;;;21.30;99.90;;;;;;5098842;28;20216;-82
2023/05/27 02:28:59;;;;;;;15.43;13.87;;;21.20;99.90;;;;;;5099038;28;20912;-82
2023/05/27 02:31:25;;;;;;;15.83;14.13;;;21.30;99.90;;;;;;5098773;28;20493;-82
2023/05/27 02:33:51;;;;;;;15.57;13.93;;;21.20;99.90;;;;;;5117231;28;20214;-82
2023/05/27 02:36:17;;;;;;;14.20;12.70;;;21.20;99.90;;;;;;5117176;28;20424;-82
2023/05/27 02:38:42;;;;;;;16.50;14.60;;;21.20;99.90;;;;;;5098794;28;20180;-82
2023/05/27 02:41:08;;;;;;;16.10;14.50;;;21.30;99.90;;;;;;5117052;28;20206;-82
2023/05/27 02:43:33;;;;;;;18.17;15.57;;;21.30;99.90;;;;;;5098724;28;20186;-82
2023/05/27 02:45:59;;;;;;;16.13;14.50;;;21.30;99.90;;;;;;5116760;28;20274;-82
2023/05/27 02:48:25;;;;;;;15.93;14.43;;;21.30;99.90;;;;;;5098698;28;20186;-82
2023/05/27 02:50:50;;;;;;;16.27;14.33;;;21.40;99.90;;;;;;5116767;28;20234;-82
2023/05/27 02:53:16;;;;;;;17.20;15.20;;;21.40;99.90;;;;;;5116863;28;20565;-82
2023/05/27 02:55:42;;;;;;;15.77;13.87;;;21.30;99.90;;;;;;5116651;28;20667;-82
2023/05/27 02:58:07;;;;;;;17.50;15.77;;;21.30;99.90;;;;;;5098377;28;20641;-82
2023/05/27 03:00:34;;;;;;;15.93;14.33;;;21.30;99.90;;;;;;5116660;28;20195;-81
2023/05/27 03:03:00;;;;;;;15.10;13.50;;;21.30;99.90;;;;;;5098210;28;20267;-82
2023/05/27 03:05:26;;;;;;;15.50;13.87;;;21.30;99.90;;;;;;5098323;28;20518;-82
2023/05/27 03:07:52;;;;;;;15.60;13.97;;;21.30;99.90;;;;;;5116297;28;20200;-82
2023/05/27 03:10:17;;;;;;;16.27;13.30;;;21.30;99.90;;;;;;5098206;28;20937;-81
2023/05/27 03:12:43;;;;;;;15.83;14.20;;;21.30;99.90;;;;;;5098033;28;20573;-82
2023/05/27 03:15:09;;;;;;;17.00;14.27;;;21.40;99.90;;;;;;5098030;28;20279;-82
2023/05/27 03:17:38;;;;;;;17.27;15.57;;;21.40;99.90;;;;;;5116337;28;20276;-82
2023/05/27 03:20:07;;;;;;;16.60;14.80;;;21.50;99.90;;;;;;5116271;28;20435;-82
2023/05/27 03:22:32;;;;;;;20.20;15.33;;;21.50;99.90;;;;;;5098137;28;20799;-82
2023/05/27 03:24:58;;;;;;;18.07;15.90;;;21.50;99.90;;;;;;5097860;28;20464;-82
2023/05/27 03:27:24;;;;;;;13.57;12.27;;;21.40;99.90;;;;;;5116420;28;20237;-82
2023/05/27 03:29:50;;;;;;;16.53;14.27;;;21.50;99.90;;;;;;5097650;28;20227;-82
2023/05/27 03:32:16;;;;;;;15.33;13.77;;;21.50;99.90;;;;;;5097919;28;20424;-82
2023/05/27 03:34:41;;;;;;;16.60;13.80;;;21.50;99.90;;;;;;5097738;28;20213;-82
2023/05/27 03:37:07;;;;;;;16.00;14.17;;;21.60;99.90;;;;;;5116304;28;20183;-82
2023/05/27 03:39:33;;;;;;;14.13;12.63;;;21.60;99.90;;;;;;5115893;28;20186;-82
2023/05/27 03:41:58;;;;;;;15.30;13.80;;;21.60;99.90;;;;;;5116085;28;20533;-82
2023/05/27 03:44:24;;;;;;;16.23;14.13;;;21.70;99.90;;;;;;5097530;28;20572;-82
2023/05/27 03:46:50;;;;;;;15.70;14.00;;;21.70;99.90;;;;;;5115929;28;20226;-81
2023/05/27 03:49:16;;;;;;;13.90;12.50;;;21.80;99.90;;;;;;5115717;28;20633;-82
2023/05/27 03:51:41;;;;;;;14.40;13.00;;;21.80;99.90;;;;;;5115908;28;20222;-82
2023/05/27 03:54:07;;;;;;;15.30;13.70;;;21.80;99.90;;;;;;5115610;28;20187;-82
2023/05/27 03:56:33;;;;;;;14.90;12.13;;;21.80;99.90;;;;;;5115679;28;20195;-82
2023/05/27 03:58:58;;;;;;;14.20;12.67;;;21.90;99.90;;;;;;5115411;28;20213;-82
2023/05/27 04:01:24;;;;;;;22.30;15.20;;;21.90;99.90;;;;;;5097190;28;20203;-82
2023/05/27 04:03:50;;;;;;;15.80;13.67;;;21.90;99.90;;;;;;5115391;28;20539;-83
2023/05/27 04:06:16;;;;;;;15.10;13.60;;;21.90;99.90;;;;;;5114932;28;20217;-82
2023/05/27 04:08:42;;;;;;;12.33;11.13;;;22.00;99.90;;;;;;5115078;28;20249;-82
2023/05/27 04:11:12;;;;;;;14.07;12.50;;;22.00;99.90;;;;;;5114420;28;20199;-82
2023/05/27 04:13:38;;;;;;;12.80;11.50;;;22.00;99.90;;;;;;5094826;28;20478;-82
2023/05/27 04:16:03;;;;;;;14.50;12.50;;;22.00;99.90;;;;;;5114598;28;20428;-82
2023/05/27 04:18:29;;;;;;;13.40;12.10;;;22.00;99.90;;;;;;5096889;28;20525;-82
2023/05/27 04:20:55;;;;;;;15.33;11.70;;;22.10;99.90;;;;;;5095680;28;20294;-82
2023/05/27 04:23:21;;;;;;;15.23;11.77;;;22.10;99.90;;;;;;5114440;28;20179;-82
2023/05/27 04:25:48;;;;;;;13.70;12.30;;;22.10;99.90;;;;;;5112986;28;20188;-82
2023/05/27 04:28:15;;;;;;;14.40;12.90;;;22.10;99.90;;;;;;5095161;28;20214;-82
2023/05/27 04:30:41;;;;;;;13.60;11.80;;;22.10;99.90;;;;;;5114134;28;20428;-82
2023/05/27 04:33:11;;;;;;;13.20;11.77;;;22.10;99.90;;;;;;5113727;28;20832;-82
2023/05/27 04:35:37;;;;;;;13.23;11.80;;;22.20;99.90;;;;;;5114710;28;20238;-82
2023/05/27 04:38:02;;;;;;;16.03;12.70;;;22.20;99.90;;;;;;5102263;28;20464;-82
2023/05/27 04:40:34;;;;;;;13.80;12.30;;;22.20;99.90;;;;;;5104158;28;20204;-82
2023/05/27 04:42:59;;;;;;;13.53;12.23;;;22.30;99.90;;;;;;5080172;28;20278;-82
2023/05/27 04:45:26;;;;;;;13.67;12.33;;;22.30;99.90;;;;;;5096178;28;20474;-82
2023/05/27 04:47:52;;;;;;;13.50;12.03;;;22.30;99.90;;;;;;5114883;28;20242;-82
2023/05/27 04:50:18;;;;;;;14.40;12.17;;;22.30;99.90;;;;;;5097737;28;20491;-82
2023/05/27 04:52:44;;;;;;;12.47;10.60;;;22.30;99.90;;;;;;5090343;28;20185;-82
2023/05/27 04:55:10;;;;;;;13.63;12.23;;;22.40;99.90;;;;;;5084484;28;20452;-82
2023/05/27 04:57:40;;;;;;;13.80;12.03;;;22.40;99.90;;;;;;5119048;27;20519;-81
2023/05/27 05:02:35;;;;;;;13.93;11.77;;;22.40;99.90;;;;;;5126275;27;21079;-82
2023/05/27 05:05:06;;;;;;;11.23;10.20;;;22.40;99.90;;;;;;5128344;27;20443;-82
2023/05/27 05:07:33;;;;;;;12.80;11.07;;;22.40;99.90;;;;;;5133814;27;20970;-82
2023/05/27 05:09:59;;;;;;;11.93;10.87;;;22.40;99.90;;;;;;5115353;27;20447;-82
2023/05/27 05:12:28;;;;;;;13.63;10.90;;;22.50;99.90;;;;;;5135119;27;20430;-82
2023/05/27 05:14:54;;;;;;;11.40;10.30;;;22.50;99.90;;;;;;5116176;27;20435;-82
2023/05/27 05:17:23;;;;;;;12.53;10.93;;;22.50;99.90;;;;;;5123321;27;20861;-82
2023/05/27 05:19:51;;;;;;;12.03;10.77;;;22.50;99.90;;;;;;5090671;28;20259;-82
2023/05/27 05:22:18;;;;;;;12.50;10.50;;;22.60;99.90;;;;;;5121453;27;20424;-83
2023/05/27 05:24:47;;;;;;;11.27;10.17;;;22.60;99.90;;;;;;5094678;28;20488;-82
2023/05/27 05:27:13;;;;;;;12.00;10.40;;;22.60;99.90;;;;;;5094913;28;20470;-82
2023/05/27 05:29:39;;;;;;;13.37;11.30;;;22.60;99.90;;;;;;5127891;28;20428;-82
2023/05/27 05:32:05;;;;;;;13.57;10.70;;;22.60;99.90;;;;;;5100880;28;20569;-82
2023/05/27 05:34:31;;;;;;;11.73;10.53;;;22.60;99.90;;;;;;5106450;28;20172;-83
2023/05/27 05:36:56;;;;;;;13.20;11.03;;;22.70;99.90;;;;;;5114218;27;20802;-82
2023/05/27 05:39:22;;;;;;;12.33;10.97;;;22.60;99.90;;;;;;5105990;27;20278;-82
2023/05/27 05:41:48;;;;;;;13.33;12.07;;;22.70;99.90;;;;;;5119747;27;20210;-82
2023/05/27 05:44:15;;;;;;;11.70;10.53;;;22.70;99.90;;;;;;5122923;27;20448;-82
2023/05/27 05:46:41;;;;;;;12.33;11.10;;;22.70;99.90;;;;;;5098871;28;20279;-82
2023/05/27 05:49:07;;;;;;;11.47;10.40;;;22.70;99.90;;;;;;5120906;27;20524;-82
2023/05/27 05:51:32;;;;;;;13.10;9.70;;;22.70;99.90;;;;;;5103890;28;20559;-82
2023/05/27 05:53:58;;;;;;;14.43;10.23;;;22.70;99.90;;;;;;5095059;28;20199;-82
2023/05/27 05:56:25;;;;;;;11.50;10.30;;;22.60;99.90;;;;;;5095509;28;20203;-82
2023/05/27 05:58:52;;;;;;;12.13;10.63;;;22.70;99.90;;;;;;5126113;27;20202;-82
2023/05/27 06:01:17;;;;;;;11.10;10.00;;;22.70;99.90;;;;;;5128792;27;20998;-82
2023/05/27 06:03:44;;;;;;;11.53;10.43;;;22.70;99.90;;;;;;5104430;27;20420;-83
2023/05/27 06:06:09;;;;;;;13.43;11.43;;;22.70;99.90;;;;;;5117657;27;20200;-82
2023/05/27 06:08:35;;;;;;;11.40;10.30;;;22.80;99.90;;;;;;5091935;28;20424;-83
2023/05/27 06:11:01;;;;;;;11.50;10.30;;;22.80;99.90;;;;;;5095508;27;20200;-82
2023/05/27 06:13:26;;;;;;;11.03;9.90;;;22.80;99.90;;;;;;5116385;28;20213;-82
2023/05/27 06:15:52;;;;;;;11.80;10.63;;;22.80;99.90;;;;;;5115761;27;20199;-82
2023/05/27 06:18:18;;;;;;;11.37;10.20;;;22.70;99.90;;;;;;5131725;27;20187;-82
2023/05/27 06:20:43;;;;;;;11.77;10.60;;;22.70;99.90;;;;;;5119697;27;20582;-82
2023/05/27 06:23:09;;;;;;;11.37;10.00;;;22.80;99.90;;;;;;5102137;28;20675;-82
2023/05/27 06:25:35;;;;;;;13.23;10.90;;;22.80;99.90;;;;;;5094479;28;20191;-82
2023/05/27 06:28:00;;;;;;;12.37;11.17;;;22.80;99.90;;;;;;5095052;28;20223;-82
2023/05/27 06:30:27;;;;;;;11.47;10.27;;;22.80;99.90;;;;;;5117331;27;20780;-82
2023/05/27 06:32:52;;;;;;;12.37;10.73;;;22.90;99.90;;;;;;5130651;27;20282;-82
2023/05/27 06:35:18;;;;;;;12.90;11.47;;;22.90;99.90;;;;;;5099656;28;20546;-82
2023/05/27 06:37:44;;;;;;;13.13;11.10;;;22.90;99.90;;;;;;5111018;27;20175;-82
2023/05/27 06:40:10;;;;;;;11.90;10.17;;;22.90;99.90;;;;;;5110410;27;20443;-82
2023/05/27 06:42:36;;;;;;;10.73;9.70;;;23.00;99.90;;;;;;5114339;28;20203;-82
2023/05/27 06:45:03;;;;;;;15.23;11.07;;;23.00;99.90;;;;;;5099599;27;20808;-82
2023/05/27 06:47:28;;;;;;;11.47;10.30;;;23.10;99.90;;;;;;5103276;28;20479;-82
2023/05/27 06:49:54;;;;;;;11.60;10.50;;;23.10;99.90;;;;;;5113273;28;20796;-83
2023/05/27 06:52:21;;;;;;;11.80;10.70;;;23.10;99.90;;;;;;5097068;28;20664;-82
2023/05/27 06:54:47;;;;;;;10.87;9.87;;;23.10;99.90;;;;;;5096085;28;20412;-82
2023/05/27 06:57:12;;;;;;;13.20;10.57;;;23.20;99.90;;;;;;5116881;28;20506;-82
2023/05/27 06:59:39;;;;;;;18.27;11.07;;;23.20;99.90;;;;;;5115188;28;20437;-82
2023/05/27 07:02:05;;;;;;;11.50;10.43;;;23.20;99.90;;;;;;5115255;28;20233;-82
2023/05/27 07:04:31;;;;;;;12.00;9.83;;;23.20;99.90;;;;;;5107229;28;20429;-82
2023/05/27 07:06:56;;;;;;;12.33;10.33;;;23.30;99.90;;;;;;5098054;28;20479;-81
2023/05/27 07:09:22;;;;;;;11.93;9.67;;;23.30;99.90;;;;;;5110557;28;20223;-82
2023/05/27 07:11:48;;;;;;;12.90;11.43;;;23.30;99.90;;;;;;5114277;28;20214;-82
2023/05/27 07:14:14;;;;;;;11.57;10.50;;;23.40;99.90;;;;;;5096288;28;20653;-82
2023/05/27 07:16:40;;;;;;;13.13;10.00;;;23.40;99.90;;;;;;5112173;28;20251;-82
2023/05/27 07:19:06;;;;;;;13.50;11.37;;;23.40;99.90;;;;;;5112554;28;20681;-81
2023/05/27 07:21:32;;;;;;;11.00;9.90;;;23.40;99.90;;;;;;5099593;28;20448;-82
2023/05/27 07:24:02;;;;;;;13.03;10.80;;;23.50;99.90;;;;;;5094133;28;20447;-82
2023/05/27 07:26:28;;;;;;;11.77;10.47;;;23.50;99.90;;;;;;5093098;28;20208;-82
2023/05/27 07:28:54;;;;;;;12.30;10.53;;;23.50;99.90;;;;;;5097339;28;20975;-82
2023/05/27 07:31:20;;;;;;;10.97;9.80;;;23.50;99.90;;;;;;5112890;28;20449;-82
2023/05/27 07:33:45;;;;;;;11.43;10.43;;;23.60;99.90;;;;;;5091970;28;20185;-82
2023/05/27 07:36:11;;;;;;;10.23;9.33;;;23.60;99.90;;;;;;5110401;28;20664;-82
2023/05/27 07:38:37;;;;;;;11.30;10.20;;;23.60;99.90;;;;;;5111981;28;20568;-82
2023/05/27 07:41:02;;;;;;;11.20;10.20;;;23.70;99.90;;;;;;5111532;27;20313;-82
2023/05/27 07:43:28;;;;;;;11.50;9.60;;;23.70;99.90;;;;;;5091099;28;20644;-82
2023/05/27 07:45:55;;;;;;;11.43;10.13;;;23.70;99.90;;;;;;5105947;27;20297;-82
2023/05/27 07:48:21;;;;;;;10.27;9.33;;;23.80;99.90;;;;;;5108025;27;20304;-82
2023/05/27 07:50:46;;;;;;;11.47;9.90;;;23.70;99.90;;;;;;5102083;27;20961;-82
2023/05/27 07:53:12;;;;;;;10.60;9.33;;;23.70;99.90;;;;;;5090300;28;20204;-82
2023/05/27 07:55:37;;;;;;;11.53;10.33;;;23.80;99.90;;;;;;5099855;28;20205;-82
2023/05/27 07:58:03;;;;;;;11.67;10.57;;;23.80;99.90;;;;;;5101211;27;20255;-82
2023/05/27 08:00:29;;;;;;;13.70;10.00;;;23.80;99.90;;;;;;5088907;28;20206;-82
2023/05/27 08:02:54;;;;;;;12.50;9.83;;;23.80;99.90;;;;;;5107025;27;20226;-81
2023/05/27 08:05:20;;;;;;;10.10;9.10;;;23.90;99.90;;;;;;5101556;28;20290;-83
2023/05/27 08:07:46;;;;;;;10.53;9.53;;;23.80;99.90;;;;;;5096224;28;20213;-82
2023/05/27 08:10:11;;;;;;;10.97;9.90;;;23.90;99.90;;;;;;5080880;28;20314;-82
2023/05/27 08:12:37;;;;;;;11.50;9.37;;;23.90;99.90;;;;;;5086082;28;20587;-81
2023/05/27 08:15:05;;;;;;;10.93;9.83;;;23.90;99.90;;;;;;5108584;27;20202;-82
2023/05/27 08:17:31;;;;;;;13.27;10.20;;;23.90;99.90;;;;;;5128617;27;20468;-81
2023/05/27 08:19:56;;;;;;;11.30;10.30;;;23.90;99.90;;;;;;5111485;28;20548;-82
2023/05/27 08:22:22;;;;;;;11.60;9.30;;;23.90;99.90;;;;;;5106839;28;20185;-82
2023/05/27 08:24:49;;;;;;;19.80;10.20;;;23.90;99.90;;;;;;5105589;27;20563;-82
2023/05/27 08:27:16;;;;;;;15.07;10.60;;;24.00;99.90;;;;;;5107006;27;20697;-82
2023/05/27 08:29:42;;;;;;;11.97;10.87;;;24.00;99.90;;;;;;5102779;27;20436;-82
2023/05/27 08:32:08;;;;;;;11.80;9.63;;;24.00;99.90;;;;;;5104369;28;20527;-83
2023/05/27 08:34:33;;;;;;;10.33;9.43;;;24.00;99.90;;;;;;5106604;28;20437;-82
2023/05/27 08:37:00;;;;;;;11.60;10.50;;;24.10;99.90;;;;;;5107722;28;20188;-83
2023/05/27 08:39:26;;;;;;;12.47;10.30;;;24.10;99.90;;;;;;5088382;28;20210;-81
2023/05/27 08:41:53;;;;;;;10.83;9.73;;;24.20;99.90;;;;;;5103593;28;20462;-82
2023/05/27 08:44:21;;;;;;;10.00;9.00;;;24.20;99.90;;;;;;5105149;28;20449;-82
2023/05/27 08:46:50;;;;;;;11.37;9.23;;;24.20;99.90;;;;;;5104833;27;20478;-82
2023/05/27 08:49:16;;;;;;;13.70;10.27;;;24.20;99.90;;;;;;5088921;28;20435;-81
2023/05/27 08:51:44;;;;;;;11.20;10.10;;;24.20;99.90;;;;;;5084542;28;20451;-82
2023/05/27 08:54:10;;;;;;;11.20;9.80;;;24.30;99.90;;;;;;5107563;28;20461;-82
2023/05/27 08:56:37;;;;;;;15.00;11.50;;;24.30;99.90;;;;;;5108661;28;20455;-82
2023/05/27 08:59:03;;;;;;;15.43;11.00;;;24.30;99.90;;;;;;5106437;28;20435;-81
2023/05/27 09:01:30;;;;;;;18.60;11.03;;;24.30;99.90;;;;;;5108238;28;20502;-82
2023/05/27 09:03:56;;;;;;;21.87;11.90;;;24.30;99.90;;;;;;5094468;28;20996;-82
2023/05/27 09:06:22;;;;;;;17.63;10.13;;;24.30;99.90;;;;;;5105422;28;20510;-82
2023/05/27 09:08:48;;;;;;;13.97;9.10;;;24.30;99.90;;;;;;5098978;28;20522;-82
2023/05/27 09:11:28;;;;;;;12.83;9.50;;;24.30;99.90;;;;;;5086919;28;21015;-82
2023/05/27 09:13:55;;;;;;;12.27;9.47;;;24.30;99.90;;;;;;5081167;28;20222;-82
2023/05/27 09:16:21;;;;;;;11.53;10.13;;;24.30;99.90;;;;;;5124137;27;20474;-82
2023/05/27 09:18:48;;;;;;;11.60;9.60;;;24.40;99.90;;;;;;5086712;28;20425;-82
2023/05/27 09:21:14;;;;;;;12.77;9.40;;;24.40;99.90;;;;;;5095051;28;20439;-82
2023/05/27 09:23:40;;;;;;;11.80;9.30;;;24.40;99.90;;;;;;5088802;28;20438;-82
2023/05/27 09:26:09;;;;;;;11.17;9.13;;;24.40;99.90;;;;;;5087680;28;20455;-82
2023/05/27 09:28:36;;;;;;;10.90;9.60;;;24.40;99.90;;;;;;5086563;28;20721;-82
2023/05/27 09:31:05;;;;;;;10.27;9.00;;;24.30;99.90;;;;;;5089255;28;20458;-82
2023/05/27 09:33:32;;;;;;;9.40;8.37;;;24.40;99.90;;;;;;5088991;28;20436;-82
2023/05/27 09:36:03;;;;;;;12.83;9.70;;;24.40;99.90;;;;;;5090449;28;20820;-81
2023/05/27 09:38:30;;;;;;;9.77;8.77;;;24.40;99.90;;;;;;5089781;28;20446;-82
2023/05/27 09:40:56;;;;;;;15.77;9.90;;;24.50;99.90;;;;;;5088005;28;20440;-82
2023/05/27 09:43:22;;;;;;;11.93;8.70;;;24.60;99.90;;;;;;5085230;28;20446;-82
2023/05/27 09:45:49;;;;;;;18.03;9.40;;;24.60;99.90;;;;;;5085558;28;20883;-82
2023/05/27 09:48:20;;;;;;;10.03;8.37;;;24.60;99.90;;;;;;5083181;28;20258;-82
2023/05/27 09:50:47;;;;;;;9.50;7.63;;;24.70;99.90;;;;;;5089290;28;21023;-82
2023/05/27 09:53:13;;;;;;;9.40;8.40;;;24.70;99.90;;;;;;5085508;28;20508;-82
2023/05/27 09:55:43;;;;;;;9.13;8.10;;;24.80;99.90;;;;;;5087851;28;20859;-82
2023/05/27 09:58:09;;;;;;;10.40;9.10;;;24.70;99.90;;;;;;5085888;28;20436;-81
2023/05/27 10:00:36;;;;;;;9.83;8.67;;;24.90;99.90;;;;;;5087276;28;20964;-83
2023/05/27 10:03:03;;;;;;;9.30;7.90;;;24.90;99.90;;;;;;5084950;28;20436;-81
2023/05/27 10:05:30;;;;;;;7.93;7.03;;;24.90;99.90;;;;;;5083269;28;20460;-82
2023/05/27 10:07:56;;;;;;;10.17;9.07;;;24.90;99.90;;;;;;5079419;28;20468;-82
2023/05/27 10:10:22;;;;;;;10.27;9.13;;;24.90;99.90;;;;;;5082347;28;20538;-82
2023/05/27 10:12:51;;;;;;;9.70;8.37;;;25.00;99.90;;;;;;5081704;28;20422;-82
2023/05/27 10:15:23;;;;;;;9.57;7.40;;;25.10;99.90;;;;;;5082856;28;20779;-81
2023/05/27 10:17:59;;;;;;;9.00;8.13;;;25.10;99.90;;;;;;5079684;28;20511;-82
2023/05/27 10:20:30;;;;;;;9.20;7.70;;;25.00;99.90;;;;;;5078701;28;20424;-82
2023/05/27 10:23:09;;;;;;;9.10;8.20;;;25.10;99.90;;;;;;5078267;28;20444;-81
2023/05/27 10:25:36;;;;;;;9.37;7.97;;;25.10;99.90;;;;;;5081444;28;20475;-82
2023/05/27 10:28:02;;;;;;;14.63;9.17;;;25.10;99.90;;;;;;5084016;28;20459;-81
2023/05/27 10:30:27;;;;;;;9.90;8.90;;;25.10;99.90;;;;;;5085776;28;20527;-81
2023/05/27 10:32:54;;;;;;;9.00;7.77;;;25.10;99.90;;;;;;5085101;28;20226;-81
2023/05/27 10:35:25;;;;;;;9.17;8.13;;;25.10;99.90;;;;;;5086656;28;20607;-81
2023/05/27 10:37:50;;;;;;;9.43;8.40;;;25.00;99.90;;;;;;5089893;28;20441;-81
2023/05/27 10:40:25;;;;;;;9.93;7.90;;;25.10;99.90;;;;;;5092378;28;20429;-82
2023/05/27 10:43:02;;;;;;;9.13;8.10;;;25.00;99.90;;;;;;5092634;28;20187;-82
2023/05/27 10:45:34;;;;;;;8.90;8.03;;;24.90;99.90;;;;;;5092983;28;20451;-82
2023/05/27 10:48:01;;;;;;;9.30;7.70;;;25.00;99.90;;;;;;5094595;28;20561;-82
2023/05/27 10:50:35;;;;;;;8.53;7.13;;;25.00;99.90;;;;;;5094936;28;21012;-82
2023/05/27 10:53:01;;;;;;;10.50;7.40;;;25.00;99.90;;;;;;5093338;28;20830;-82
2023/05/27 10:55:27;;;;;;;11.77;8.90;;;25.10;99.90;;;;;;5094276;28;20428;-82
2023/05/27 10:57:53;;;;;;;10.37;7.90;;;25.10;99.90;;;;;;5093218;28;20795;-82
2023/05/27 11:00:20;;;;;;;8.90;7.17;;;25.20;99.90;;;;;;5094250;28;20234;-82
2023/05/27 11:02:47;;;;;;;8.40;7.17;;;25.30;99.90;;;;;;5093214;28;20425;-82
2023/05/27 11:05:15;;;;;;;10.80;8.70;;;25.30;99.90;;;;;;5094168;28;20477;-82
2023/05/27 11:07:41;;;;;;;8.33;7.53;;;25.40;99.90;;;;;;5093879;28;20464;-82
2023/05/27 11:10:08;;;;;;;9.10;7.80;;;25.40;99.90;;;;;;5094861;28;20921;-81
2023/05/27 11:12:34;;;;;;;9.13;6.80;;;25.40;99.90;;;;;;5096539;28;20420;-82
2023/05/27 11:15:00;;;;;;;11.70;8.10;;;25.40;99.90;;;;;;5095958;28;20458;-82
2023/05/27 11:17:26;;;;;;;9.93;7.80;;;25.50;99.90;;;;;;5094491;28;20231;-82
2023/05/27 11:19:52;;;;;;;10.30;7.57;;;25.50;99.90;;;;;;5095898;28;20196;-82
2023/05/27 11:22:19;;;;;;;16.10;8.67;;;25.50;99.90;;;;;;5094754;28;20424;-82
2023/05/27 11:25:05;;;;;;;9.57;7.10;;;25.50;99.90;;;;;;5094480;28;20413;-82
2023/05/27 11:27:35;;;;;;;8.50;7.57;;;25.50;99.90;;;;;;5094637;28;21023;-82
2023/05/27 11:30:09;;;;;;;8.83;7.40;;;25.50;99.90;;;;;;5095705;28;20501;-82
2023/05/27 11:32:36;;;;;;;9.40;8.20;;;25.50;99.90;;;;;;5094396;28;20909;-82
2023/05/27 11:35:02;;;;;;;10.73;7.27;;;25.60;99.90;;;;;;5095538;28;20425;-82
2023/05/27 11:37:35;;;;;;;8.40;6.70;;;25.70;99.90;;;;;;5094471;28;20436;-82
2023/05/27 11:40:00;;;;;;;10.97;7.53;;;25.60;99.90;;;;;;5094146;28;20444;-82
2023/05/27 11:42:29;;;;;;;9.80;7.97;;;25.70;99.90;;;;;;5096058;28;20900;-82
2023/05/27 11:44:56;;;;;;;7.93;6.80;;;25.70;99.90;;;;;;5094406;28;20205;-82
2023/05/27 11:47:22;;;;;;;10.17;7.10;;;25.60;99.90;;;;;;5095242;28;20471;-82
2023/05/27 11:49:51;;;;;;;8.67;7.97;;;25.60;99.90;;;;;;5094733;28;20421;-82
2023/05/27 11:52:17;;;;;;;9.37;7.20;;;25.60;99.90;;;;;;5095265;28;20424;-82
2023/05/27 11:54:43;;;;;;;7.97;7.17;;;25.60;99.90;;;;;;5094901;28;20574;-82
2023/05/27 11:57:10;;;;;;;9.00;7.70;;;25.70;99.90;;;;;;5094551;28;20996;-81
2023/05/27 11:59:36;;;;;;;11.13;7.67;;;25.60;99.90;;;;;;5095217;28;20179;-82
2023/05/27 12:02:03;;;;;;;9.30;8.13;;;25.60;99.90;;;;;;5095350;28;20438;-82
2023/05/27 12:04:30;;;;;;;7.60;6.80;;;25.70;99.90;;;;;;5093774;28;20852;-82
2023/05/27 12:06:56;;;;;;;11.43;6.80;;;25.70;99.90;;;;;;5092101;28;20831;-81
2023/05/27 12:09:22;;;;;;;7.07;6.37;;;25.80;99.90;;;;;;5092685;28;20898;-80
2023/05/27 12:11:48;;;;;;;7.53;6.43;;;25.80;99.90;;;;;;5091361;28;20543;-81
2023/05/27 12:14:13;;;;;;;7.37;6.67;;;25.90;99.90;;;;;;5093029;28;20269;-82
2023/05/27 12:16:39;;;;;;;8.23;6.47;;;26.00;99.90;;;;;;5091045;28;20684;-82
2023/05/27 12:19:05;;;;;;;8.23;7.10;;;26.00;99.90;;;;;;5092475;28;20177;-81
2023/05/27 12:21:32;;;;;;;7.20;6.60;;;26.00;99.90;;;;;;5092014;28;20254;-82
2023/05/27 12:23:57;;;;;;;8.33;6.70;;;26.00;99.90;;;;;;5094652;28;20176;-81
2023/05/27 12:26:24;;;;;;;15.80;6.93;;;26.00;99.90;;;;;;5093189;28;20455;-81
2023/05/27 12:28:50;;;;;;;7.33;6.53;;;26.00;99.90;;;;;;5093315;28;20260;-80
2023/05/27 12:31:16;;;;;;;7.70;6.90;;;26.00;99.90;;;;;;5094673;28;20464;-80
2023/05/27 12:33:42;;;;;;;8.00;6.47;;;26.10;99.90;;;;;;5093143;28;20474;-82